createdAt,value
2023-02-14T00:01:42.778Z,5.10
2023-02-14T00:04:11.109Z,5.10
2023-02-14T00:06:40.045Z,5.20
2023-02-14T00:09:09.670Z,5.10
2023-02-14T00:11:37.955Z,5.20
2023-02-14T00:14:24.341Z,5.10
2023-02-14T00:16:54.667Z,5.20
2023-02-14T00:19:23.662Z,5.20
2023-02-14T00:21:52.266Z,5.20
2023-02-14T00:24:22.159Z,5.20
2023-02-14T00:26:51.306Z,5.20
2023-02-14T00:29:21.620Z,5.20
2023-02-14T00:31:49.884Z,5.20
2023-02-14T00:34:20.332Z,5.20
2023-02-14T00:36:49.312Z,5.20
2023-02-14T00:39:18.196Z,5.10
2023-02-14T00:41:46.691Z,5.10
2023-02-14T00:44:15.546Z,5.10
2023-02-14T00:46:43.744Z,5.10
2023-02-14T00:49:12.190Z,5.10
2023-02-14T00:51:42.015Z,5.10
2023-02-14T00:54:10.316Z,5.10
2023-02-14T00:56:38.499Z,5.10
2023-02-14T00:59:06.847Z,5.00
2023-02-14T01:01:35.074Z,5.00
2023-02-14T01:04:03.439Z,5.00
2023-02-14T01:06:31.816Z,4.90
2023-02-14T01:09:01.775Z,5.00
2023-02-14T01:11:30.371Z,5.00
2023-02-14T01:13:59.979Z,5.00
2023-02-14T01:16:29.183Z,4.90
2023-02-14T01:18:57.828Z,4.90
2023-02-14T01:21:27.941Z,5.00
2023-02-14T01:23:58.829Z,5.00
2023-02-14T01:26:29.486Z,4.90
2023-02-14T01:28:57.916Z,4.80
2023-02-14T01:31:27.654Z,4.90
2023-02-14T01:33:56.480Z,4.80
2023-02-14T01:36:26.190Z,4.80
2023-02-14T01:38:56.490Z,4.80
2023-02-14T01:41:25.924Z,4.70
2023-02-14T01:43:59.032Z,4.70
2023-02-14T01:46:29.502Z,4.70
2023-02-14T01:49:02.453Z,4.70
2023-02-14T01:51:31.862Z,4.70
2023-02-14T01:54:01.262Z,4.70
2023-02-14T01:56:35.842Z,4.70
2023-02-14T01:59:08.754Z,4.60
2023-02-14T02:01:37.148Z,4.60
2023-02-14T02:04:11.199Z,4.60
2023-02-14T02:06:42.420Z,4.60
2023-02-14T02:09:17.728Z,4.50
2023-02-14T02:11:46.386Z,4.60
2023-02-14T02:14:20.313Z,4.60
2023-02-14T02:17:12.733Z,4.60
2023-02-14T02:20:15.258Z,4.50
2023-02-14T02:23:18.956Z,4.60
2023-02-14T02:26:22.491Z,4.60
2023-02-14T02:29:24.150Z,4.60
2023-02-14T02:32:19.601Z,4.60
2023-02-14T02:35:26.609Z,4.70
2023-02-14T02:38:10.785Z,4.70
2023-02-14T02:40:49.418Z,4.70
2023-02-14T02:43:28.883Z,4.80
2023-02-14T02:46:20.822Z,4.80
2023-02-14T02:48:58.460Z,4.80
2023-02-14T02:51:54.007Z,4.80
2023-02-14T02:54:30.589Z,4.90
2023-02-14T02:57:01.490Z,4.90
2023-02-14T02:59:32.443Z,4.90
2023-02-14T03:02:07.295Z,4.90
2023-02-14T03:04:56.125Z,5.00
2023-02-14T03:07:39.555Z,5.00
2023-02-14T03:10:12.584Z,5.00
2023-02-14T03:13:08.044Z,5.00
2023-02-14T03:15:55.370Z,4.90
2023-02-14T03:18:58.094Z,5.00
2023-02-14T03:21:32.124Z,5.00
2023-02-14T03:24:10.860Z,5.00
2023-02-14T03:26:47.403Z,5.00
2023-02-14T03:29:21.547Z,4.90
2023-02-14T03:31:59.505Z,5.00
2023-02-14T03:34:33.349Z,4.90
2023-02-14T03:37:09.907Z,4.90
2023-02-14T03:39:47.159Z,4.90
2023-02-14T03:42:22.685Z,4.90
2023-02-14T03:44:53.938Z,4.90
2023-02-14T03:47:24.656Z,4.80
2023-02-14T03:49:56.581Z,4.80
2023-02-14T03:52:27.644Z,4.80
2023-02-14T03:54:59.486Z,4.80
2023-02-14T03:57:31.058Z,4.80
2023-02-14T03:59:59.421Z,4.80
2023-02-14T04:02:33.508Z,4.80
2023-02-14T04:05:05.366Z,4.70
2023-02-14T04:07:44.441Z,4.70
2023-02-14T04:10:14.417Z,4.70
2023-02-14T04:12:42.649Z,4.70
2023-02-14T04:15:11.490Z,4.70
2023-02-14T04:17:57.416Z,4.60
2023-02-14T04:20:26.195Z,4.60
2023-02-14T04:22:54.537Z,4.60
2023-02-14T04:25:24.525Z,4.60
2023-02-14T04:27:52.836Z,4.60
2023-02-14T04:30:22.973Z,4.60
2023-02-14T04:32:51.639Z,4.60
2023-02-14T04:35:19.989Z,4.60
2023-02-14T04:37:48.342Z,4.50
2023-02-14T04:40:18.059Z,4.50
2023-02-14T04:42:48.347Z,4.50
2023-02-14T04:45:16.666Z,4.50
2023-02-14T04:47:45.048Z,4.50
2023-02-14T04:50:13.314Z,4.50
2023-02-14T04:52:42.162Z,4.50
2023-02-14T04:55:11.479Z,4.50
2023-02-14T04:57:39.744Z,4.50
2023-02-14T05:00:10.627Z,4.50
2023-02-14T05:02:38.854Z,4.50
2023-02-14T05:05:07.879Z,4.50
2023-02-14T05:07:36.241Z,4.50
2023-02-14T05:10:04.650Z,4.60
2023-02-14T05:12:33.220Z,4.60
2023-02-14T05:15:01.484Z,4.60
2023-02-14T05:17:31.246Z,4.70
2023-02-14T05:19:59.383Z,4.70
2023-02-14T05:22:27.587Z,4.80
2023-02-14T05:24:55.861Z,4.70
2023-02-14T05:27:24.114Z,4.80
2023-02-14T05:29:52.235Z,4.80
2023-02-14T05:32:20.460Z,4.80
2023-02-14T05:34:50.106Z,4.80
2023-02-14T05:37:18.351Z,4.90
2023-02-14T05:39:46.568Z,4.90
2023-02-14T05:42:14.781Z,4.90
2023-02-14T05:44:43.045Z,4.90
2023-02-14T05:47:13.097Z,4.90
2023-02-14T05:49:41.616Z,4.90
2023-02-14T05:52:11.682Z,5.00
2023-02-14T05:54:39.877Z,5.00
2023-02-14T05:57:08.063Z,5.00
2023-02-14T05:59:36.275Z,5.00
2023-02-14T06:02:04.515Z,5.00
2023-02-14T06:04:32.878Z,5.00
2023-02-14T06:07:01.487Z,5.00
2023-02-14T06:09:31.219Z,5.00
2023-02-14T06:11:59.855Z,5.10
2023-02-14T06:14:28.121Z,5.10
2023-02-14T06:16:56.475Z,5.10
2023-02-14T06:19:24.719Z,5.10
2023-02-14T06:21:53.087Z,5.10
2023-02-14T06:24:21.411Z,5.10
2023-02-14T06:26:51.156Z,5.20
2023-02-14T06:29:19.893Z,5.20
2023-02-14T06:31:48.541Z,5.10
2023-02-14T06:34:16.838Z,5.20
2023-02-14T06:36:45.251Z,5.20
2023-02-14T06:39:13.415Z,5.20
2023-02-14T06:41:41.780Z,5.30
2023-02-14T06:44:11.490Z,5.30
2023-02-14T06:46:39.868Z,5.20
2023-02-14T06:49:08.164Z,5.30
2023-02-14T06:51:36.333Z,5.30
2023-02-14T06:54:04.627Z,5.20
2023-02-14T06:56:32.977Z,5.20
2023-02-14T06:59:01.223Z,5.30
2023-02-14T07:01:30.973Z,5.30
2023-02-14T07:03:59.166Z,5.20
2023-02-14T07:06:27.703Z,5.20
2023-02-14T07:08:55.925Z,5.20
2023-02-14T07:11:24.201Z,5.20
2023-02-14T07:13:52.341Z,5.30
2023-02-14T07:16:20.683Z,5.30
2023-02-14T07:18:50.477Z,5.30
2023-02-14T07:21:18.728Z,5.30
2023-02-14T07:23:50.036Z,5.30
2023-02-14T07:26:18.405Z,5.30
2023-02-14T07:28:46.730Z,5.20
2023-02-14T07:31:14.980Z,5.20
2023-02-14T07:33:43.395Z,5.30
2023-02-14T07:36:13.127Z,5.30
2023-02-14T07:38:41.334Z,5.30
2023-02-14T07:41:09.564Z,5.40
2023-02-14T07:43:38.908Z,5.40
2023-02-14T07:46:08.667Z,5.40
2023-02-14T07:48:36.869Z,5.40
2023-02-14T07:51:05.190Z,5.50
2023-02-14T07:53:35.097Z,5.50
2023-02-14T07:56:03.297Z,5.60
2023-02-14T07:58:31.575Z,5.60
2023-02-14T08:01:00.114Z,5.60
2023-02-14T08:03:28.530Z,5.60
2023-02-14T08:05:58.308Z,5.60
2023-02-14T08:08:28.141Z,5.60
2023-02-14T08:10:58.852Z,5.80
2023-02-14T08:13:27.936Z,5.80
2023-02-14T08:16:09.737Z,5.90
2023-02-14T08:18:40.224Z,5.90
2023-02-14T08:21:10.784Z,5.90
2023-02-14T08:23:39.787Z,5.80
2023-02-14T08:26:09.629Z,5.80
2023-02-14T08:28:37.898Z,5.80
2023-02-14T08:31:06.374Z,5.80
2023-02-14T08:33:34.671Z,5.80
2023-02-14T08:36:03.148Z,5.90
2023-02-14T08:38:31.724Z,5.90
2023-02-14T08:41:05.867Z,5.90
2023-02-14T08:43:37.446Z,5.90
2023-02-14T08:46:05.892Z,6.00
2023-02-14T08:48:37.442Z,6.00
2023-02-14T08:51:08.454Z,6.00
2023-02-14T08:53:37.050Z,5.90
2023-02-14T08:56:06.063Z,5.80
2023-02-14T08:58:35.844Z,5.80
2023-02-14T09:01:09.789Z,5.80
2023-02-14T09:03:38.700Z,5.90
2023-02-14T09:06:09.051Z,6.00
2023-02-14T09:08:39.852Z,6.00
2023-02-14T09:11:09.355Z,6.00
2023-02-14T09:13:38.025Z,6.00
2023-02-14T09:16:09.477Z,6.00
2023-02-14T09:18:38.258Z,6.00
2023-02-14T09:21:10.345Z,6.00
2023-02-14T09:23:38.899Z,6.10
2023-02-14T09:26:08.643Z,6.30
2023-02-14T09:28:37.263Z,6.50
2023-02-14T09:31:13.093Z,6.50
2023-02-14T09:33:42.021Z,6.50
2023-02-14T09:36:27.973Z,6.50
2023-02-14T09:38:56.286Z,6.60
2023-02-14T09:41:49.393Z,6.80
2023-02-14T09:44:25.833Z,6.90
2023-02-14T09:46:58.769Z,6.80
2023-02-14T09:49:33.926Z,6.80
2023-02-14T09:52:05.196Z,6.90
2023-02-14T09:54:35.867Z,6.90
2023-02-14T09:57:10.139Z,6.80
2023-02-14T09:59:44.706Z,6.90
2023-02-14T10:02:37.634Z,6.90
2023-02-14T10:05:13.332Z,6.80
2023-02-14T10:07:58.191Z,6.90
2023-02-14T10:10:32.811Z,6.80
2023-02-14T10:13:06.885Z,6.80
2023-02-14T10:15:39.543Z,6.90
2023-02-14T10:18:13.979Z,6.90
2023-02-14T10:20:46.091Z,6.90
2023-02-14T10:23:31.569Z,7.00
2023-02-14T10:26:03.051Z,6.90
2023-02-14T10:28:36.730Z,6.90
2023-02-14T10:31:20.818Z,6.90
2023-02-14T10:33:57.485Z,6.90
2023-02-14T10:36:43.471Z,7.00
2023-02-14T10:39:26.562Z,7.00
2023-02-14T10:41:59.749Z,7.00
2023-02-14T10:44:40.887Z,7.10
2023-02-14T10:47:21.368Z,7.20
2023-02-14T10:49:57.450Z,7.20
2023-02-14T10:52:31.184Z,7.30
2023-02-14T10:55:01.541Z,7.40
2023-02-14T10:57:33.452Z,7.40
2023-02-14T11:00:03.488Z,7.40
2023-02-14T11:02:35.997Z,7.40
2023-02-14T11:05:06.326Z,7.40
2023-02-14T11:07:34.977Z,7.50
2023-02-14T11:10:03.348Z,7.50
2023-02-14T11:12:38.066Z,7.50
2023-02-14T11:15:21.490Z,7.70
2023-02-14T11:17:49.865Z,7.80
2023-02-14T11:20:30.385Z,7.80
2023-02-14T11:22:58.847Z,7.80
2023-02-14T11:25:29.368Z,7.80
2023-02-14T11:28:02.221Z,7.90
2023-02-14T11:30:41.120Z,7.80
2023-02-14T11:33:13.980Z,7.60
2023-02-14T11:35:51.992Z,7.70
2023-02-14T11:38:30.561Z,7.70
2023-02-14T11:41:00.408Z,7.80
2023-02-14T11:43:34.353Z,8.00
2023-02-14T11:46:14.752Z,8.20
2023-02-14T11:48:57.835Z,8.20
2023-02-14T11:51:36.904Z,8.10
2023-02-14T11:54:06.917Z,8.20
2023-02-14T11:56:49.105Z,8.20
2023-02-14T11:59:31.385Z,8.40
2023-02-14T12:02:02.817Z,8.40
2023-02-14T12:04:46.176Z,8.50
2023-02-14T12:07:22.823Z,8.60
2023-02-14T12:10:23.905Z,8.50
2023-02-14T12:12:54.749Z,8.30
2023-02-14T12:15:36.885Z,8.40
2023-02-14T12:18:39.454Z,8.40
2023-02-14T12:21:37.888Z,8.50
2023-02-14T12:24:16.914Z,8.50
2023-02-14T12:26:49.397Z,8.30
2023-02-14T12:29:26.269Z,8.10
2023-02-14T12:31:56.082Z,8.00
2023-02-14T12:34:24.267Z,7.90
2023-02-14T12:37:19.468Z,7.90
2023-02-14T12:40:22.981Z,8.00
2023-02-14T12:43:22.310Z,8.00
2023-02-14T12:46:06.082Z,8.00
2023-02-14T12:48:48.524Z,8.10
2023-02-14T12:51:25.132Z,8.20
2023-02-14T12:54:07.793Z,8.20
2023-02-14T12:56:46.270Z,8.10
2023-02-14T12:59:26.106Z,8.20
2023-02-14T13:02:33.262Z,8.20
2023-02-14T13:05:07.405Z,8.20
2023-02-14T13:07:49.929Z,8.20
2023-02-14T13:10:30.147Z,8.20
2023-02-14T13:13:07.626Z,8.20
2023-02-14T13:15:45.591Z,8.20
2023-02-14T13:18:25.887Z,8.20
2023-02-14T13:20:57.315Z,8.30
2023-02-14T13:23:30.521Z,8.30
2023-02-14T13:26:05.105Z,8.20
2023-02-14T13:28:37.572Z,8.20
2023-02-14T13:31:06.417Z,8.40
2023-02-14T13:33:39.261Z,8.50
2023-02-14T13:36:10.550Z,8.70
2023-02-14T13:38:44.807Z,8.60
2023-02-14T13:41:14.358Z,8.60
2023-02-14T13:43:55.012Z,8.70
2023-02-14T13:46:38.963Z,8.70
2023-02-14T13:49:31.804Z,8.60
2023-02-14T13:52:03.792Z,8.50
2023-02-14T13:54:46.135Z,8.40
2023-02-14T13:57:34.091Z,8.50
2023-02-14T14:00:41.281Z,8.50
2023-02-14T14:03:15.018Z,8.50
2023-02-14T14:05:59.862Z,8.60
2023-02-14T14:08:46.873Z,8.60
2023-02-14T14:11:58.588Z,8.50
2023-02-14T14:14:39.800Z,8.60
2023-02-14T14:17:29.359Z,8.60
2023-02-14T14:19:58.182Z,8.60
2023-02-14T14:22:27.022Z,8.50
2023-02-14T14:25:05.229Z,8.40
2023-02-14T14:27:36.576Z,8.40
2023-02-14T14:30:07.668Z,8.40
2023-02-14T14:32:39.343Z,8.40
2023-02-14T14:35:18.170Z,8.40
2023-02-14T14:37:49.004Z,8.40
2023-02-14T14:40:26.330Z,8.30
2023-02-14T14:42:57.169Z,8.20
2023-02-14T14:45:28.455Z,8.10
2023-02-14T14:48:10.972Z,7.90
2023-02-14T14:50:59.436Z,7.70
2023-02-14T14:53:49.174Z,7.50
2023-02-14T14:56:40.623Z,7.50
2023-02-14T14:59:29.155Z,7.40
2023-02-14T15:01:57.609Z,7.30
2023-02-14T15:04:30.060Z,7.30
2023-02-14T15:07:42.170Z,7.20
2023-02-14T15:10:30.116Z,7.20
2023-02-14T15:13:17.534Z,7.20
2023-02-14T15:15:53.934Z,7.10
2023-02-14T15:18:28.161Z,7.00
2023-02-14T15:20:58.224Z,6.90
2023-02-14T15:23:28.296Z,6.90
2023-02-14T15:25:56.523Z,6.80
2023-02-14T15:28:29.619Z,6.70
2023-02-14T15:31:05.766Z,6.60
2023-02-14T15:33:35.180Z,6.50
2023-02-14T15:36:08.349Z,6.50
2023-02-14T15:38:41.957Z,6.50
2023-02-14T15:41:11.919Z,6.40
2023-02-14T15:43:43.747Z,6.40
2023-02-14T15:46:19.061Z,6.40
2023-02-14T15:48:47.901Z,6.30
2023-02-14T15:51:22.265Z,6.30
2023-02-14T15:53:59.085Z,6.30
2023-02-14T15:56:30.453Z,6.30
2023-02-14T15:59:02.651Z,6.20
2023-02-14T16:01:32.933Z,6.10
2023-02-14T16:04:03.859Z,6.00
2023-02-14T16:06:39.554Z,5.90
2023-02-14T16:09:23.783Z,5.90
2023-02-14T16:11:53.650Z,5.80
2023-02-14T16:14:30.990Z,5.70
2023-02-14T16:17:02.253Z,5.60
2023-02-14T16:19:38.750Z,5.60
2023-02-14T16:22:10.737Z,5.60
2023-02-14T16:24:39.064Z,5.50
2023-02-14T16:27:13.434Z,5.60
2023-02-14T16:29:41.703Z,5.50
2023-02-14T16:32:18.770Z,5.50
2023-02-14T16:34:48.419Z,5.60
2023-02-14T16:37:24.458Z,5.50
2023-02-14T16:39:56.695Z,5.50
2023-02-14T16:42:25.244Z,5.50
2023-02-14T16:44:53.857Z,5.50
2023-02-14T16:47:22.779Z,5.50
2023-02-14T16:49:53.151Z,5.50
2023-02-14T16:52:26.713Z,5.40
2023-02-14T16:54:55.378Z,5.40
2023-02-14T16:57:28.041Z,5.40
2023-02-14T16:59:57.575Z,5.40
2023-02-14T17:02:28.483Z,5.40
2023-02-14T17:04:57.156Z,5.30
2023-02-14T17:07:28.372Z,5.30
2023-02-14T17:10:02.397Z,5.30
2023-02-14T17:12:34.633Z,5.30
2023-02-14T17:15:07.145Z,5.30
2023-02-14T17:17:36.773Z,5.30
2023-02-14T17:20:08.185Z,5.30
2023-02-14T17:22:38.544Z,5.40
2023-02-14T17:25:07.211Z,5.40
2023-02-14T17:27:35.357Z,5.40
2023-02-14T17:30:03.880Z,5.40
2023-02-14T17:32:32.251Z,5.40
2023-02-14T17:35:03.600Z,5.40
2023-02-14T17:37:32.885Z,5.40
2023-02-14T17:40:02.723Z,5.40
2023-02-14T17:42:33.094Z,5.40
2023-02-14T17:45:01.469Z,5.40
2023-02-14T17:47:30.777Z,5.30
2023-02-14T17:49:58.992Z,5.30
2023-02-14T17:52:29.846Z,5.30
2023-02-14T17:54:58.216Z,5.30
2023-02-14T17:57:28.100Z,5.30
2023-02-14T17:59:56.366Z,5.30
2023-02-14T18:02:24.566Z,5.30
2023-02-14T18:04:52.816Z,5.30
2023-02-14T18:07:21.188Z,5.30
2023-02-14T18:09:49.465Z,5.30
2023-02-14T18:12:18.068Z,5.30
2023-02-14T18:14:47.733Z,5.30
2023-02-14T18:17:15.981Z,5.30
2023-02-14T18:19:46.677Z,5.30
2023-02-14T18:22:14.902Z,5.20
2023-02-14T18:24:43.264Z,5.20
2023-02-14T18:27:11.588Z,5.20
2023-02-14T18:29:39.828Z,5.30
2023-02-14T18:32:09.661Z,5.30
2023-02-14T18:34:38.478Z,5.20
2023-02-14T18:37:07.276Z,5.20
2023-02-14T18:39:35.380Z,5.20
2023-02-14T18:42:04.562Z,5.20
2023-02-14T18:44:33.563Z,5.10
2023-02-14T18:47:02.814Z,5.10
2023-02-14T18:49:33.139Z,5.10
2023-02-14T18:52:02.014Z,5.20
2023-02-14T18:54:30.236Z,5.20
2023-02-14T18:56:58.530Z,5.20
2023-02-14T18:59:26.746Z,5.10
2023-02-14T19:01:55.101Z,5.10
2023-02-14T19:04:23.388Z,5.10
2023-02-14T19:06:53.448Z,5.00
2023-02-14T19:09:21.672Z,5.00
2023-02-14T19:11:50.031Z,5.00
2023-02-14T19:14:19.863Z,5.00
2023-02-14T19:16:51.251Z,4.90
2023-02-14T19:19:19.766Z,4.90
2023-02-14T19:21:48.497Z,4.90
2023-02-14T19:24:19.792Z,5.00
2023-02-14T19:26:48.423Z,4.90
2023-02-14T19:29:18.210Z,4.90
2023-02-14T19:31:48.576Z,4.90
2023-02-14T19:34:20.049Z,4.90
2023-02-14T19:36:49.108Z,4.90
2023-02-14T19:39:19.209Z,4.90
2023-02-14T19:41:48.033Z,4.90
2023-02-14T19:44:17.893Z,5.00
2023-02-14T19:46:47.743Z,5.00
2023-02-14T19:49:17.759Z,4.90
2023-02-14T19:51:47.432Z,4.90
2023-02-14T19:54:15.941Z,4.90
2023-02-14T19:56:47.780Z,4.90
2023-02-14T19:59:20.194Z,4.80
2023-02-14T20:01:50.342Z,4.80
2023-02-14T20:04:20.354Z,4.80
2023-02-14T20:06:49.258Z,4.80
2023-02-14T20:09:18.217Z,4.80
2023-02-14T20:11:50.284Z,4.80
2023-02-14T20:14:20.457Z,4.90
2023-02-14T20:16:49.260Z,4.80
2023-02-14T20:19:20.789Z,4.90
2023-02-14T20:21:50.817Z,4.90
2023-02-14T20:24:20.713Z,4.80
2023-02-14T20:26:51.099Z,4.80
2023-02-14T20:29:20.345Z,4.70
2023-02-14T20:31:50.429Z,4.70
2023-02-14T20:34:19.163Z,4.70
2023-02-14T20:36:52.975Z,4.60
2023-02-14T20:39:23.065Z,4.60
2023-02-14T20:41:54.064Z,4.60
2023-02-14T20:44:22.950Z,4.60
2023-02-14T20:46:52.983Z,4.60
2023-02-14T20:49:22.417Z,4.60
2023-02-14T20:51:51.415Z,4.60
2023-02-14T20:54:20.488Z,4.60
2023-02-14T20:56:50.716Z,4.50
2023-02-14T20:59:26.353Z,4.50
2023-02-14T21:01:54.979Z,4.50
2023-02-14T21:04:23.637Z,4.40
2023-02-14T21:06:52.056Z,4.40
2023-02-14T21:09:20.972Z,4.40
2023-02-14T21:11:50.361Z,4.40
2023-02-14T21:14:21.073Z,4.30
2023-02-14T21:16:49.351Z,4.40
2023-02-14T21:19:17.722Z,4.30
2023-02-14T21:21:46.021Z,4.30
2023-02-14T21:24:16.763Z,4.30
2023-02-14T21:26:45.798Z,4.30
2023-02-14T21:29:14.132Z,4.30
2023-02-14T21:31:43.891Z,4.30
2023-02-14T21:34:12.518Z,4.30
2023-02-14T21:36:40.806Z,4.40
2023-02-14T21:39:09.239Z,4.40
2023-02-14T21:41:38.175Z,4.40
2023-02-14T21:44:07.581Z,4.40
2023-02-14T21:46:39.438Z,4.40
2023-02-14T21:49:26.586Z,4.40
2023-02-14T21:51:54.759Z,4.40
2023-02-14T21:54:22.980Z,4.40
2023-02-14T21:56:51.195Z,4.40
2023-02-14T21:59:19.360Z,4.40
2023-02-14T22:01:47.783Z,4.40
2023-02-14T22:04:17.569Z,4.40
2023-02-14T22:06:45.908Z,4.40
2023-02-14T22:09:17.569Z,4.40
2023-02-14T22:11:47.641Z,4.40
2023-02-14T22:14:16.282Z,4.40
2023-02-14T22:16:44.517Z,4.40
2023-02-14T22:19:16.988Z,4.40
2023-02-14T22:21:45.673Z,4.30
2023-02-14T22:24:13.925Z,4.40
2023-02-14T22:26:42.430Z,4.40
2023-02-14T22:29:12.916Z,4.40
2023-02-14T22:31:43.626Z,4.40
2023-02-14T22:34:13.882Z,4.30
2023-02-14T22:36:43.533Z,4.40
2023-02-14T22:39:14.757Z,4.30
2023-02-14T22:41:43.480Z,4.30
2023-02-14T22:44:13.346Z,4.30
2023-02-14T22:46:41.927Z,4.30
2023-02-14T22:49:10.341Z,4.30
2023-02-14T22:51:40.378Z,4.30
2023-02-14T22:54:13.634Z,4.30
2023-02-14T22:56:44.001Z,4.30
2023-02-14T22:59:16.420Z,4.20
2023-02-14T23:01:45.242Z,4.20
2023-02-14T23:04:14.649Z,4.20
2023-02-14T23:06:42.851Z,4.20
2023-02-14T23:09:14.030Z,4.10
2023-02-14T23:11:44.097Z,4.20
2023-02-14T23:14:31.118Z,4.20
2023-02-14T23:17:16.881Z,4.20
2023-02-14T23:20:03.191Z,4.30
2023-02-14T23:22:33.788Z,4.30
2023-02-14T23:25:06.041Z,4.40
2023-02-14T23:27:36.915Z,4.30
2023-02-14T23:30:06.488Z,4.30
2023-02-14T23:32:34.834Z,4.20
2023-02-14T23:35:03.190Z,4.20
2023-02-14T23:37:31.528Z,4.20
2023-02-14T23:39:59.868Z,4.20
2023-02-14T23:42:29.562Z,4.20
2023-02-14T23:45:18.202Z,4.20
2023-02-14T23:47:46.394Z,4.20
2023-02-14T23:50:14.625Z,4.20
2023-02-14T23:52:44.549Z,4.20
2023-02-14T23:55:13.300Z,4.20
2023-02-14T23:57:43.004Z,4.20
